Latest Weather Observations for Westmere

IDV60801

Issued at 4:32 pm EST Saturday 27 August 2016 (issued every 30 minutes, with the page automatically refreshed every 10 minutes)

About weather observations | Map of weather stations | Latest weather observations for VIC | Other Formats
Station Details ID: 089112 Name: WESTMERE Lat: -37.71 Lon: 142.94 Height: 226.0 m
Data from the previous 72 hours. | See also: Recent months at Westmere
Date/Time
EST
Temp
°C
App
Temp
°C
Dew
Point
°C
Rel
Hum
%
Delta-T
°C
Wind Press
QNH
hPa
Press
MSL
hPa
Rain since
9am
mm
Dir  Spd
km/h
Gust
km/h
Spd
kts
Gust
kts
27/04:30pm 12.0 5.8 4.2 59 3.6 NNW 26 33 14 18 1017.8 1018.1 0.0
27/04:00pm 11.3 5.0 3.8 60 3.4 NW 26 35 14 19 1018.0 1018.3 0.0
27/03:30pm 12.4 5.9 4.9 60 3.5 NW 28 37 15 20 1018.0 1018.3 0.0
27/03:00pm 11.5 5.9 5.2 65 2.9 NW 24 33 13 18 1018.2 1018.5 0.0
27/02:30pm 11.6 5.8 4.6 62 3.2 NW 24 35 13 19 1018.5 1018.8 0.0
27/02:00pm 13.1 7.4 5.0 58 3.8 NNW 24 35 13 19 1018.1 1018.4 0.0
27/01:30pm 12.6 6.4 4.3 57 3.8 NNW 26 39 14 21 1019.0 1019.3 0.0
27/01:00pm 11.3 4.3 4.1 61 3.3 NW 30 41 16 22 1019.2 1019.5 0.0
27/12:30pm 12.1 5.5 4.1 58 3.6 NW 28 37 15 20 1019.7 1020.0 0.0
27/12:00pm 11.1 4.9 4.1 62 3.2 NNW 26 35 14 19 1020.1 1020.5 0.0
27/11:30am 11.2 4.2 4.0 61 3.3 NNW 30 41 16 22 1020.4 1020.8 0.0
27/11:00am 10.1 4.1 3.6 64 2.9 NW 24 33 13 18 1020.9 1021.3 0.0
27/10:30am 10.0 5.2 4.4 68 2.5 NNW 19 26 10 14 1021.4 1021.8 0.0
27/10:00am 9.7 4.7 4.7 71 2.3 NW 20 33 11 18 1021.5 1021.9 0.0
27/09:30am 9.7 4.7 4.7 71 2.3 NNW 20 26 11 14 1021.5 1021.9 0.0
27/09:00am 8.8 5.2 4.8 76 1.8 NNW 13 20 7 11 1021.6 1022.0 0.0
27/08:30am 7.9 3.5 4.8 81 1.4 N 17 24 9 13 1021.0 1021.4 0.0
27/08:00am 7.2 2.7 4.0 80 1.4 N 17 22 9 12 1020.9 1021.3 0.0
27/07:30am 6.7 2.9 4.0 83 1.2 N 13 19 7 10 1021.6 1022.0 0.0
27/07:00am 6.4 2.6 3.9 84 1.1 N 13 15 7 8 1021.4 1021.8 0.0
27/06:30am 6.6 3.6 3.9 83 1.2 N 9 13 5 7 1021.5 1021.9 0.0
27/06:00am 6.8 4.1 3.9 82 1.3 NNW 7 11 4 6 1021.5 1021.9 0.0
27/05:30am 7.1 3.6 3.7 79 1.5 NNW 11 15 6 8 1021.2 1021.6 0.0
27/05:00am 7.3 4.0 4.3 81 1.3 NNW 11 15 6 8 1020.9 1021.3 0.0
27/04:30am 7.1 4.7 5.4 89 0.8 NNW 7 13 4 7 1020.6 1021.0 0.0
27/04:00am 6.5 4.3 5.5 93 0.4 NNW 6 7 3 4 1020.6 1021.0 0.0
27/03:30am 6.4 4.2 5.4 93 0.4 NW 6 7 3 4 1020.6 1021.0 0.0
27/03:00am 6.6 4.2 5.4 92 0.5 NW 7 9 4 5 1020.7 1021.1 0.0
27/02:30am 6.5 3.8 5.5 93 0.4 NW 9 11 5 6 1021.1 1021.5 0.0
27/02:00am 6.1 3.3 5.2 94 0.4 NW 9 11 5 6 1021.3 1021.7 0.0
27/01:30am 4.9 2.3 4.0 94 0.4 NW 7 7 4 4 1021.6 1022.0 0.0
27/01:00am 4.8 1.7 3.6 92 0.5 NW 9 11 5 6 1021.8 1022.1 0.0
27/12:30am 5.7 2.3 4.2 90 0.6 NW 11 13 6 7 1021.9 1022.2 0.0
27/12:00am 7.1 4.0 5.4 89 0.8 NNW 11 13 6 7 1022.0 1022.3 0.0
 
Date/Time
EST
Temp
°C
App
Temp
°C
Dew
Point
°C
Rel
Hum
%
Delta-T
°C
Wind Press
QNH
hPa
Press
MSL
hPa
Rain since
9am
mm
Dir  Spd
km/h
Gust
km/h
Spd
kts
Gust
kts
26/11:30pm 7.9 4.9 5.9 87 0.9 NW 11 15 6 8 1022.1 1022.4 0.0
26/11:00pm 8.0 5.0 6.1 88 0.9 NW 11 15 6 8 1022.2 1022.5 0.0
26/10:30pm 7.8 4.8 5.8 87 0.9 NW 11 13 6 7 1022.3 1022.6 0.0
26/10:00pm 7.8 4.8 5.8 87 0.9 NW 11 13 6 7 1022.3 1022.6 0.0
26/09:30pm 7.7 5.0 5.7 87 0.9 WNW 9 13 5 7 1022.2 1022.5 0.0
26/09:00pm 7.3 4.1 5.3 87 0.9 NW 11 15 6 8 1021.9 1022.2 0.0
26/08:30pm 6.6 3.8 5.1 90 0.7 NW 9 11 5 6 1021.9 1022.2 0.0
26/08:00pm 7.2 4.4 5.0 86 1.0 NW 9 11 5 6 1021.8 1022.1 0.0
26/07:30pm 8.2 5.8 5.3 82 1.3 NW 7 9 4 5 1021.8 1022.1 0.0
26/07:00pm 8.5 5.7 5.3 80 1.4 NW 9 13 5 7 1021.6 1022.0 0.0
26/06:30pm 8.9 6.7 5.5 79 1.6 NNW 6 11 3 6 1021.3 1021.7 0.0
26/06:00pm 9.1 6.4 5.7 79 1.6 NW 9 13 5 7 1021.1 1021.5 0.0
26/05:30pm 9.6 6.9 5.4 75 1.9 NW 9 13 5 7 1021.0 1021.4 0.0
26/05:00pm 9.9 6.7 5.3 73 2.1 NW 11 15 6 8 1020.7 1021.1 0.0
26/04:30pm 10.5 7.0 5.5 71 2.3 WNW 13 17 7 9 1020.5 1020.9 0.0
26/04:00pm 10.4 7.7 5.6 72 2.2 WNW 9 15 5 8 1020.4 1020.8 0.0
26/03:30pm 10.6 6.6 4.7 67 2.7 WNW 15 24 8 13 1020.5 1020.9 0.0
26/03:00pm 10.9 6.5 4.6 65 2.9 WNW 17 24 9 13 1020.6 1021.0 0.0
26/02:30pm 10.6 6.5 4.5 66 2.8 WNW 15 24 8 13 1020.8 1021.2 0.0
26/02:00pm 11.7 7.3 4.9 63 3.1 NW 17 22 9 12 1020.8 1021.2 0.0
26/01:30pm 11.3 6.4 4.3 62 3.2 WNW 19 32 10 17 1021.0 1021.4 0.0
26/01:00pm 10.8 6.7 4.3 64 2.9 WNW 15 26 8 14 1021.4 1021.8 0.0
26/12:30pm 10.4 5.5 4.1 65 2.8 NW 19 26 10 14 1021.9 1022.2 0.0
26/12:00pm 10.0 5.2 4.8 70 2.4 NW 19 24 10 13 1022.2 1022.5 0.0
26/11:30am 9.6 4.6 3.8 67 2.6 W 19 24 10 13 1022.6 1022.9 0.0
26/11:00am 9.5 4.6 4.1 69 2.4 W 19 28 10 15 1022.4 1022.7 0.0
26/10:30am 9.0 5.1 5.4 78 1.6 WNW 15 20 8 11 1022.4 1022.7 0.0
26/10:00am 8.3 4.3 5.1 80 1.4 WNW 15 20 8 11 1022.6 1022.9 0.0
26/09:30am 7.5 3.1 4.6 82 1.3 WNW 17 22 9 12 1022.6 1022.9 0.0
26/09:00am 7.1 4.0 5.4 89 0.8 WNW 11 13 6 7 1022.5 1022.8 0.4
26/08:30am 6.3 3.1 5.1 92 0.5 WNW 11 17 6 9 1022.3 1022.6 0.4
26/08:00am 5.7 2.9 5.0 95 0.3 NW 9 15 5 8 1022.2 1022.5 0.4
26/07:30am 5.1 2.7 4.5 96 0.3 WNW 6 9 3 5 1022.1 1022.4 0.4
26/07:00am 4.7 2.3 4.3 97 0.2 WNW 6 9 3 5 1021.8 1022.1 0.4
26/06:30am 4.1 1.0 3.7 97 0.2 NW 9 13 5 7 1021.2 1021.6 0.4
26/06:00am 3.0 -0.3 2.6 97 0.2 NW 9 11 5 6 1021.0 1021.4 0.4
26/05:30am 1.1 -2.5 0.5 96 0.2 NW 9 9 5 5 1020.8 1021.2 0.4
26/05:00am 1.3 -2.7 0.7 96 0.2 NW 11 11 6 6 1020.5 1020.9 0.4
26/04:30am 1.6 -1.9 1.0 96 0.2 NW 9 11 5 6 1020.2 1020.6 0.4
26/04:00am 2.0 -1.5 1.4 96 0.2 NW 9 11 5 6 1020.0 1020.4 0.4
26/03:30am 2.6 -0.4 2.0 96 0.2 NW 7 9 4 5 1020.0 1020.4 0.4
26/03:00am 3.7 1.1 3.1 96 0.2 WNW 6 6 3 3 1020.1 1020.5 0.4
26/02:30am 4.0 1.4 3.3 95 0.3 WNW 6 6 3 3 1020.3 1020.7 0.4
26/02:00am 5.1 2.6 4.5 96 0.3 NW 7 7 4 4 1020.4 1020.8 0.4
26/01:30am 5.4 2.9 4.8 96 0.3 NW 7 9 4 5 1020.4 1020.8 0.4
26/01:00am 5.3 3.0 4.7 96 0.3 NW 6 7 3 4 1020.4 1020.8 0.4
26/12:30am 5.3 2.8 4.7 96 0.3 NW 7 7 4 4 1020.5 1020.9 0.4
26/12:00am 5.3 3.0 4.6 95 0.3 W 6 7 3 4 1020.5 1020.9 0.4
 
Date/Time
EST
Temp
°C
App
Temp
°C
Dew
Point
°C
Rel
Hum
%
Delta-T
°C
Wind Press
QNH
hPa
Press
MSL
hPa
Rain since
9am
mm
Dir  Spd
km/h
Gust
km/h
Spd
kts
Gust
kts
25/11:30pm 5.2 2.8 4.5 95 0.3 W 6 7 3 4 1020.5 1020.9 0.4
25/11:00pm 5.4 3.0 4.5 94 0.4 WSW 6 9 3 5 1020.3 1020.7 0.2
25/10:30pm 5.9 4.0 5.0 94 0.4 WSW 4 6 2 3 1020.4 1020.8 0.2
25/10:00pm 5.8 3.9 4.8 93 0.4 WSW 4 7 2 4 1020.3 1020.7 0.2
25/09:30pm 5.5 3.0 4.6 94 0.4 W 7 11 4 6 1020.1 1020.5 0.2
25/09:00pm 4.6 1.9 3.7 94 0.4 W 7 11 4 6 1020.0 1020.4 0.2
25/08:30pm 3.5 0.7 2.0 90 0.6 WSW 6 7 3 4 1019.8 1020.1 0.2
25/08:00pm 4.9 2.3 3.2 89 0.7 WSW 6 7 3 4 1019.5 1019.8 0.2
25/07:30pm 5.5 2.8 3.5 87 0.8 SW 7 9 4 5 1019.2 1019.5 0.2
25/07:00pm 6.2 3.2 4.0 86 0.9 SW 9 13 5 7 1019.0 1019.3 0.2
25/06:30pm 7.2 4.3 4.7 84 1.1 SW 9 13 5 7 1018.5 1018.8 0.2
25/06:00pm 7.1 3.9 4.9 86 1.0 SSW 11 17 6 9 1018.3 1018.6 0.2
25/05:30pm 8.5 3.8 5.3 80 1.5 SW 19 28 10 15 1017.9 1018.2 0.2
25/05:00pm 9.7 5.7 4.7 71 2.3 SSW 15 22 8 12 1017.4 1017.7 0.2
25/04:30pm 9.2 4.6 5.4 77 1.7 SW 19 24 10 13 1017.3 1017.6 0.2
25/04:00pm 10.8 6.1 5.1 68 2.6 SW 19 26 10 14 1016.9 1017.3 0.2
25/03:30pm 11.5 6.7 5.4 66 2.8 SSW 20 28 11 15 1016.8 1017.2 0.2
25/03:00pm 11.2 6.3 5.1 66 2.8 SW 20 28 11 15 1016.7 1017.1 0.2
25/02:30pm 11.8 7.2 6.5 70 2.5 SW 20 28 11 15 1016.4 1016.8 0.2
25/02:00pm 11.8 7.2 5.7 66 2.9 SSW 19 24 10 13 1016.2 1016.6 0.2
25/01:30pm 11.0 8.1 6.7 75 2.1 SW 11 20 6 11 1016.2 1016.6 0.2
25/01:00pm 9.7 5.1 5.7 76 1.8 SW 19 32 10 17 1016.7 1017.1 0.2
25/12:30pm 9.7 6.3 5.7 76 1.9 SW 13 20 7 11 1016.7 1017.1 0.2
25/12:00pm 8.3 3.5 5.8 84 1.1 SSW 20 39 11 21 1016.9 1017.3 0.2
25/11:30am 10.7 6.9 5.9 72 2.3 SW 15 22 8 12 1016.6 1017.0 0.0
25/11:00am 9.2 4.9 5.4 77 1.7 SW 17 24 9 13 1016.8 1017.2 0.0
25/10:30am 8.9 5.6 6.2 83 1.3 WSW 13 17 7 9 1016.7 1017.1 0.0
25/10:00am 8.1 4.4 6.2 88 0.9 WSW 15 22 8 12 1016.5 1016.9 0.0
25/09:30am 7.0 3.2 5.6 91 0.6 WSW 15 20 8 11 1016.4 1016.8 0.0
25/09:00am 6.9 3.5 5.7 92 0.5 WSW 13 20 7 11 1016.2 1016.6 0.4
25/08:30am 6.1 3.3 5.2 94 0.4 WSW 9 15 5 8 1016.1 1016.4 0.4
25/08:00am 5.4 2.5 4.7 95 0.3 W 9 13 5 7 1015.7 1016.0 0.4
25/07:30am 4.8 2.2 4.2 96 0.3 WSW 7 11 4 6 1015.2 1015.5 0.4
25/07:00am 4.2 1.1 3.6 96 0.3 W 9 11 5 6 1015.2 1015.5 0.4
25/06:30am 3.8 1.0 3.2 96 0.2 W 7 11 4 6 1014.8 1015.1 0.4
25/06:00am 4.0 1.4 3.4 96 0.2 W 6 9 3 5 1014.6 1014.9 0.4
25/05:30am 4.5 1.8 3.9 96 0.3 W 7 9 4 5 1014.4 1014.7 0.4
25/05:00am 4.3 1.8 3.6 95 0.3 W 6 7 3 4 1014.1 1014.4 0.4
25/04:30am 5.4 2.5 4.8 96 0.3 W 9 11 5 6 1014.1 1014.4 0.4
25/04:00am 5.3 2.4 4.7 96 0.3 WSW 9 13 5 7 1014.1 1014.4 0.2
25/03:30am 5.1 2.6 4.5 96 0.3 WSW 7 17 4 9 1014.0 1014.3 0.2
25/03:00am 4.6 2.1 3.9 95 0.3 WNW 6 9 3 5 1014.1 1014.4 0.2
25/02:30am 5.2 2.7 4.6 96 0.3 W 7 9 4 5 1014.2 1014.5 0.2
25/02:00am 4.9 2.5 4.3 96 0.3 W 6 9 3 5 1014.4 1014.7 0.2
25/01:30am 4.5 2.0 3.9 96 0.3 W 6 7 3 4 1014.6 1014.9 0.0
25/01:00am 4.3 1.8 3.7 96 0.3 W 6 9 3 5 1014.7 1015.0 0.0
25/12:30am 3.2 0.3 2.6 96 0.2 WNW 7 9 4 5 1014.7 1015.0 0.0
25/12:00am 2.7 -0.1 2.1 96 0.2 W 6 7 3 4 1014.8 1015.1 0.0
 
Date/Time
EST
Temp
°C
App
Temp
°C
Dew
Point
°C
Rel
Hum
%
Delta-T
°C
Wind Press
QNH
hPa
Press
MSL
hPa
Rain since
9am
mm
Dir  Spd
km/h
Gust
km/h
Spd
kts
Gust
kts
24/11:30pm 2.8 -0.2 2.1 95 0.3 W 7 7 4 4 1015.0 1015.3 0.0
24/11:00pm 3.4 0.5 2.5 94 0.4 WSW 7 9 4 5 1015.0 1015.3 0.0
24/10:30pm 4.1 0.9 3.2 94 0.4 SW 9 13 5 7 1015.2 1015.5 0.0
24/10:00pm 3.8 0.2 2.9 94 0.4 SW 11 13 6 7 1015.4 1015.7 0.0
24/09:30pm 3.7 0.4 2.7 93 0.4 SW 9 13 5 7 1015.3 1015.6 0.0
24/09:00pm 3.2 0.2 2.0 92 0.5 SW 7 9 4 5 1015.3 1015.6 0.0
24/08:30pm 4.2 1.4 2.9 91 0.5 SW 7 9 4 5 1015.3 1015.6 0.0
24/08:00pm 5.2 2.7 3.7 90 0.6 SW 6 7 3 4 1015.3 1015.6 0.0
24/07:30pm 6.0 3.5 4.5 90 0.7 SSW 7 9 4 5 1015.2 1015.5 0.0
24/07:00pm 6.4 3.6 5.0 91 0.6 SSW 9 13 5 7 1015.1 1015.4 0.0
24/06:30pm 6.9 3.7 5.2 89 0.8 SSW 11 15 6 8 1014.9 1015.2 0.0
24/06:00pm 7.3 3.8 5.4 88 0.9 SSW 13 19 7 10 1014.8 1015.1 0.0
24/05:30pm 7.8 4.4 5.8 87 0.9 SSW 13 17 7 9 1014.6 1014.9 0.0
24/05:00pm 8.0 3.4 5.6 85 1.1 SSW 19 26 10 14 1014.4 1014.7 0.0

Other Formats:

Comma delimited format used in spreadsheet applications
http://www.bom.gov.au/fwo/IDV60801/IDV60801.95840.axf

JavaScript Object Notation format (JSON) in row-major order
http://www.bom.gov.au/fwo/IDV60801/IDV60801.95840.json